createdAt,value
2023-05-12T00:01:30.262Z,11.3
2023-05-12T00:03:32.489Z,11.2
2023-05-12T00:05:34.217Z,11.4
2023-05-12T00:09:38.141Z,11.2
2023-05-12T00:11:40.148Z,11.3
2023-05-12T00:13:45.475Z,11.4
2023-05-12T00:15:47.284Z,11.2
2023-05-12T00:38:11.837Z,11.3
2023-05-12T00:40:13.732Z,11.3
2023-05-12T00:47:25.288Z,11.5
2023-05-12T00:49:27.272Z,11.2
2023-05-12T00:51:29.274Z,11.2
2023-05-12T00:53:44.966Z,11.2
2023-05-12T00:55:36.496Z,11.4
2023-05-12T00:57:38.389Z,11.4
2023-05-12T01:03:44.178Z,11.3
2023-05-12T01:05:46.169Z,11.3
2023-05-12T01:07:48.064Z,11.4
2023-05-12T01:09:53.304Z,11.3
2023-05-12T01:11:55.276Z,11
2023-05-12T01:13:57.159Z,11
2023-05-12T01:15:59.089Z,11.1
2023-05-12T01:20:02.871Z,11.1
2023-05-12T01:22:04.890Z,11.4
2023-05-12T01:24:10.097Z,10.8
2023-05-12T01:26:11.979Z,11.1
2023-05-12T01:30:15.870Z,11.3
2023-05-12T01:34:19.885Z,11.2
2023-05-12T01:36:21.872Z,11.1
2023-05-12T01:40:28.916Z,11.3
2023-05-12T01:44:59.722Z,11.3
2023-05-12T01:53:10.732Z,11.3
2023-05-12T01:55:12.761Z,11.3
2023-05-12T01:57:14.760Z,11.4
2023-05-12T02:01:18.694Z,11.4
2023-05-12T02:03:20.706Z,11.1
2023-05-12T02:05:25.763Z,11.3
2023-05-12T02:07:27.765Z,11.1
2023-05-12T02:09:29.663Z,11.2
2023-05-12T02:11:31.682Z,11.4
2023-05-12T02:13:33.654Z,11.2
2023-05-12T02:15:35.630Z,11.4
2023-05-12T02:17:37.725Z,11.5
2023-05-12T02:21:44.622Z,11.1
2023-05-12T02:23:46.536Z,11.4
2023-05-12T02:25:48.401Z,11.2
2023-05-12T02:27:50.420Z,11.5
2023-05-12T02:29:52.428Z,11.3
2023-05-12T02:31:54.335Z,11.3
2023-05-12T02:33:59.474Z,11.4
2023-05-12T02:38:03.338Z,11.3
2023-05-12T02:39:05.833Z,11.4
2023-05-12T02:45:11.649Z,11.3
2023-05-12T02:47:16.790Z,11.1
2023-05-12T02:49:18.657Z,11.5
2023-05-12T02:51:20.574Z,11.2
2023-05-12T02:53:22.582Z,11.4
2023-05-12T02:55:24.560Z,11.4
2023-05-12T02:57:26.568Z,11.3
2023-05-12T03:01:33.819Z,11.3
2023-05-12T03:07:39.493Z,11.3
2023-05-12T03:09:41.496Z,11.3
2023-05-12T03:13:45.250Z,11.3
2023-05-12T03:19:54.177Z,11.4
2023-05-12T03:21:56.064Z,11.4
2023-05-12T03:23:58.051Z,11.2
2023-05-12T03:25:59.970Z,11.4
2023-05-12T03:28:01.938Z,11.2
2023-05-12T03:30:07.066Z,11.4
2023-05-12T03:32:09.033Z,11.3
2023-05-12T03:34:10.934Z,11.5
2023-05-12T03:35:13.549Z,11.5
2023-05-12T03:37:15.558Z,11.4
2023-05-12T03:41:19.440Z,11.4
2023-05-12T03:45:26.447Z,11.6
2023-05-12T03:47:29.363Z,11.5
2023-05-12T03:49:30.351Z,11.6
2023-05-12T03:51:32.227Z,11.6
2023-05-12T03:53:34.258Z,11.6
2023-05-12T03:55:36.216Z,11.6
2023-05-12T03:57:41.470Z,11.6
2023-05-12T04:01:45.428Z,11.6
2023-05-12T04:18:05.948Z,11.9
2023-05-12T04:22:09.931Z,11.8
2023-05-12T04:24:11.931Z,11.6
2023-05-12T04:26:16.931Z,12
2023-05-12T04:28:18.839Z,12
2023-05-12T04:30:21.064Z,11.9
2023-05-12T04:31:23.357Z,12
2023-05-12T04:33:25.226Z,12
2023-05-12T04:35:27.121Z,11.8
2023-05-12T04:37:29.013Z,12
2023-05-12T04:39:34.104Z,12.1
2023-05-12T04:41:36.102Z,12.1
2023-05-12T04:45:39.990Z,12.1
2023-05-12T04:47:41.925Z,12
2023-05-12T04:49:43.856Z,12.2
2023-05-12T04:51:45.736Z,12.2
2023-05-12T04:55:52.739Z,11.9
2023-05-12T04:59:56.531Z,12.3
2023-05-12T05:04:00.522Z,12.5
2023-05-12T05:06:02.431Z,12.5
2023-05-12T05:08:07.550Z,12.4
2023-05-12T05:10:09.524Z,12.2
2023-05-12T05:12:11.425Z,12.5
2023-05-12T05:18:17.282Z,12.5
2023-05-12T05:22:24.163Z,12.5
2023-05-12T05:26:28.097Z,12.7
2023-05-12T05:28:56.805Z,12.7
2023-05-12T05:33:00.632Z,12.8
2023-05-12T05:57:29.468Z,13.1
2023-05-12T05:59:31.335Z,13.1
2023-05-12T06:09:43.887Z,13.1
2023-05-12T06:11:45.744Z,13.3
2023-05-12T06:13:47.648Z,13.3
2023-05-12T06:17:54.601Z,13.5
2023-05-12T06:19:56.418Z,13.4
2023-05-12T06:23:00.805Z,13.5
2023-05-12T06:25:02.681Z,13.6
2023-05-12T06:27:04.597Z,13.7
2023-05-12T06:29:06.474Z,13.8
2023-05-12T06:31:11.548Z,13.8
2023-05-12T06:33:13.420Z,13.7
2023-05-12T06:35:15.321Z,13.8
2023-05-12T06:37:17.185Z,13.8
2023-05-12T06:39:19.110Z,14
2023-05-12T06:41:20.966Z,14
2023-05-12T06:43:22.850Z,13.9
2023-05-12T06:45:27.894Z,14
2023-05-12T06:47:29.769Z,13.8
2023-05-12T06:49:31.672Z,13.8
2023-05-12T06:53:35.454Z,14.1
2023-05-12T06:55:37.303Z,14.4
2023-05-12T06:57:39.198Z,14.4
2023-05-12T06:59:44.211Z,14.6
2023-05-12T07:01:46.164Z,14.5
2023-05-12T07:03:48.028Z,14.5
2023-05-12T07:05:49.919Z,14.6
2023-05-12T07:07:51.757Z,14.7
2023-05-12T07:09:53.627Z,15
2023-05-12T07:11:55.506Z,14.7
2023-05-12T07:16:02.463Z,15.1
2023-05-12T07:18:04.294Z,15.1
2023-05-12T07:19:06.832Z,15.1
2023-05-12T07:21:08.643Z,15.2
2023-05-12T07:25:12.464Z,15.5
2023-05-12T07:27:17.429Z,15.7
2023-05-12T07:29:19.320Z,15.5
2023-05-12T07:31:21.215Z,15.8
2023-05-12T07:33:23.099Z,15.5
2023-05-12T07:35:24.925Z,15.6
2023-05-12T07:37:26.798Z,15.8
2023-05-12T07:39:28.682Z,15.7
2023-05-12T07:41:34.529Z,15.9
2023-05-12T07:47:39.377Z,16.1
2023-05-12T07:53:44.920Z,16.3
2023-05-12T07:57:51.818Z,16.5
2023-05-12T07:59:53.647Z,17.1
2023-05-12T08:05:59.214Z,17
2023-05-12T08:08:01.116Z,16.8
2023-05-12T08:10:06.099Z,17
2023-05-12T08:14:09.762Z,17.4
2023-05-12T08:15:12.253Z,17.7
2023-05-12T08:21:17.785Z,17.9
2023-05-12T08:23:22.773Z,17.6
2023-05-12T08:25:24.606Z,18.2
2023-05-12T08:27:26.451Z,18.1
2023-05-12T08:31:30.160Z,17.4
2023-05-12T08:33:31.949Z,17.7
2023-05-12T08:35:33.791Z,18.2
2023-05-12T08:37:38.771Z,17.9
2023-05-12T08:41:42.447Z,18
2023-05-12T08:43:44.251Z,18
2023-05-12T08:45:46.071Z,18
2023-05-12T08:49:52.330Z,18
2023-05-12T08:51:58.313Z,17.4
2023-05-12T08:53:56.549Z,18.2
2023-05-12T08:57:09.158Z,18.2
2023-05-12T09:12:42.730Z,18.7
2023-05-12T09:14:44.550Z,18.5
2023-05-12T09:16:46.411Z,18.2
2023-05-12T09:20:53.152Z,18.4
2023-05-12T09:22:55.030Z,18.3
2023-05-12T09:24:56.784Z,18.3
2023-05-12T09:33:07.380Z,18.5
2023-05-12T09:35:09.046Z,18.7
2023-05-12T09:37:11.857Z,18.9
2023-05-12T09:41:14.489Z,19.4
2023-05-12T09:43:16.331Z,19.5
2023-05-12T09:45:18.455Z,19
2023-05-12T09:47:23.206Z,18.9
2023-05-12T09:49:24.856Z,18.9
2023-05-12T09:57:32.084Z,19.8
2023-05-12T10:03:42.122Z,19.7
2023-05-12T10:05:43.942Z,20.1
2023-05-12T10:06:46.409Z,19.5
2023-05-12T10:14:56.719Z,19.5
2023-05-12T10:16:58.537Z,19.9
2023-05-12T10:19:00.385Z,19.5
2023-05-12T10:21:02.077Z,19.8
2023-05-12T10:23:03.858Z,20
2023-05-12T10:25:05.645Z,20.4
2023-05-12T10:27:07.489Z,20.4
2023-05-12T10:29:12.376Z,20.1
2023-05-12T10:31:14.236Z,19.6
2023-05-12T10:33:15.924Z,19.4
2023-05-12T10:35:17.740Z,19.5
2023-05-12T10:37:19.513Z,19.6
2023-05-12T10:39:21.248Z,20.1
2023-05-12T10:41:23.057Z,20.1
2023-05-12T10:43:28.019Z,19.8
2023-05-12T10:45:29.779Z,19.6
2023-05-12T10:51:35.142Z,19.6
2023-05-12T10:53:48.241Z,19.7
2023-05-12T10:55:38.861Z,20.2
2023-05-12T10:57:43.921Z,20
2023-05-12T10:59:45.860Z,20.3
2023-05-12T11:02:50.177Z,20.9
2023-05-12T11:08:55.276Z,21
2023-05-12T11:10:59.975Z,20.5
2023-05-12T11:13:01.718Z,20.8
2023-05-12T11:15:03.530Z,20.7
2023-05-12T11:17:05.264Z,20.6
2023-05-12T11:19:07.177Z,20.5
2023-05-12T11:21:08.831Z,20.9
2023-05-12T11:23:10.614Z,20.7
2023-05-12T11:25:15.569Z,20.5
2023-05-12T11:27:17.304Z,20.4
2023-05-12T11:31:20.891Z,20.6
2023-05-12T11:33:22.624Z,20.5
2023-05-12T11:35:24.407Z,20.5
2023-05-12T11:37:26.166Z,20.3
2023-05-12T11:39:31.088Z,20.5
2023-05-12T11:41:32.861Z,20.7
2023-05-12T11:43:34.637Z,20.7
2023-05-12T11:45:37.474Z,20.5
2023-05-12T11:47:38.218Z,20.5
2023-05-12T11:49:39.952Z,20.5
2023-05-12T11:58:52.686Z,20.6
2023-05-12T12:00:54.496Z,20.3
2023-05-12T12:02:56.312Z,20.7
2023-05-12T12:04:58.005Z,20.8
2023-05-12T12:07:02.964Z,21.2
2023-05-12T12:09:04.700Z,21.2
2023-05-12T12:11:06.482Z,21.4
2023-05-12T12:15:10.015Z,21
2023-05-12T12:17:11.756Z,21.8
2023-05-12T12:19:13.664Z,21.4
2023-05-12T12:21:18.995Z,21.8
2023-05-12T12:23:20.213Z,21.4
2023-05-12T12:25:22.113Z,21.4
2023-05-12T12:27:23.716Z,21.5
2023-05-12T12:29:25.497Z,21.5
2023-05-12T12:31:27.274Z,21.7
2023-05-12T12:33:28.964Z,21.6
2023-05-12T12:35:33.881Z,21.7
2023-05-12T12:37:35.650Z,21.7
2023-05-12T12:39:37.376Z,21.7
2023-05-12T12:41:39.104Z,21.9
2023-05-12T12:43:40.848Z,22
2023-05-12T12:45:42.712Z,22.3
2023-05-12T12:47:44.336Z,21.9
2023-05-12T12:53:52.708Z,21.3
2023-05-12T12:56:21.068Z,21.6
2023-05-12T13:00:24.562Z,21.2
2023-05-12T13:02:29.566Z,21.6
2023-05-12T13:08:34.684Z,21.4
2023-05-12T13:10:36.441Z,21.8
2023-05-12T13:12:38.177Z,21.6
2023-05-12T13:14:39.890Z,21.6
2023-05-12T13:16:44.872Z,21.6
2023-05-12T13:18:46.633Z,21.6
2023-05-12T13:22:50.017Z,22
2023-05-12T13:35:03.620Z,22
2023-05-12T13:41:08.859Z,22.2
2023-05-12T13:43:10.541Z,22
2023-05-12T13:45:16.327Z,22.6
2023-05-12T13:47:17.201Z,22.6
2023-05-12T13:49:18.939Z,22.2
2023-05-12T13:50:21.373Z,22.5
2023-05-12T13:54:24.836Z,22.6
2023-05-12T13:58:31.489Z,22.7
2023-05-12T14:00:33.193Z,22.8
2023-05-12T14:02:34.933Z,23
2023-05-12T14:04:36.701Z,23.2
2023-05-12T14:06:38.344Z,23
2023-05-12T14:08:40.077Z,22.8
2023-05-12T14:10:41.790Z,23
2023-05-12T14:12:46.738Z,22.6
2023-05-12T14:14:48.416Z,23
2023-05-12T14:16:50.273Z,23.5
2023-05-12T14:18:51.861Z,23.1
2023-05-12T14:27:01.883Z,24.4
2023-05-12T14:29:03.582Z,24.5
2023-05-12T14:31:05.280Z,24.7
2023-05-12T14:35:08.668Z,25.2
2023-05-12T14:37:10.327Z,24.5
2023-05-12T14:39:12.024Z,25.1
2023-05-12T14:41:16.906Z,24.6
2023-05-12T14:43:18.570Z,24.5
2023-05-12T14:45:20.509Z,24.4
2023-05-12T14:48:24.346Z,24.2
2023-05-12T14:50:26.025Z,23.3
2023-05-12T14:52:27.696Z,22.4
2023-05-12T14:54:32.540Z,21.4
2023-05-12T14:56:34.281Z,21.5
2023-05-12T14:58:35.913Z,21.2
2023-05-12T15:00:37.642Z,20.9
2023-05-12T15:02:39.405Z,21.1
2023-05-12T15:06:42.757Z,20.6
2023-05-12T15:08:47.672Z,20.4
2023-05-12T15:10:49.391Z,20.5
2023-05-12T15:12:51.118Z,20.7
2023-05-12T15:14:52.868Z,20.6
2023-05-12T15:16:54.615Z,20.6
2023-05-12T15:18:56.335Z,20.5
2023-05-12T15:23:03.007Z,20.6
2023-05-12T15:25:04.815Z,20.7
2023-05-12T15:29:08.337Z,20.9
2023-05-12T15:31:10.161Z,21.3
2023-05-12T15:33:11.899Z,24
2023-05-12T15:37:18.583Z,25.5
2023-05-12T15:39:21.769Z,25.8
2023-05-12T15:41:22.098Z,26.1
2023-05-12T15:42:30.019Z,26.4
2023-05-12T15:48:29.800Z,24.9
2023-05-12T15:50:34.743Z,23.3
2023-05-12T15:52:37.972Z,23.4
2023-05-12T15:56:41.434Z,22.6
2023-05-12T15:58:43.131Z,22.7
2023-05-12T16:00:44.835Z,22.9
2023-05-12T16:04:51.524Z,22.8
2023-05-12T16:06:53.169Z,22.7
2023-05-12T16:08:54.915Z,22.6
2023-05-12T16:12:58.279Z,22.8
2023-05-12T16:23:10.080Z,22.4
2023-05-12T16:25:11.769Z,23
2023-05-12T16:27:13.496Z,23
2023-05-12T16:31:16.972Z,22.6
2023-05-12T16:35:23.980Z,22.3
2023-05-12T16:37:25.341Z,22.5
2023-05-12T16:39:53.713Z,22.3
2023-05-12T16:43:57.192Z,22
2023-05-12T16:50:05.618Z,22.2
2023-05-12T17:02:19.315Z,21.5
2023-05-12T17:10:26.349Z,20.8
2023-05-12T17:20:38.387Z,21.1
2023-05-12T17:22:40.154Z,21.1
2023-05-12T17:24:41.928Z,21
2023-05-12T17:26:43.728Z,20.9
2023-05-12T17:30:50.440Z,21
2023-05-12T17:32:52.264Z,20.8
2023-05-12T17:40:00.065Z,21.1
2023-05-12T17:42:05.012Z,21.1
2023-05-12T17:44:06.809Z,21.1
2023-05-12T17:50:12.170Z,20.8
2023-05-12T17:56:20.704Z,20.6
2023-05-12T17:58:22.518Z,20.8
2023-05-12T18:04:27.869Z,20.8
2023-05-12T18:08:31.469Z,20.7
2023-05-12T18:12:38.223Z,20.6
2023-05-12T18:14:40.003Z,20.6
2023-05-12T18:18:43.637Z,20.3
2023-05-12T18:22:47.223Z,20.1
2023-05-12T18:26:53.964Z,19.9
2023-05-12T18:29:58.268Z,19.9
2023-05-12T18:34:01.849Z,19.7
2023-05-12T18:36:03.661Z,19.7
2023-05-12T18:38:08.634Z,19.5
2023-05-12T18:40:10.448Z,19.7
2023-05-12T18:42:12.264Z,19.2
2023-05-12T18:44:14.029Z,19.5
2023-05-12T18:46:15.898Z,19.7
2023-05-12T18:48:17.684Z,19.4
2023-05-12T18:50:19.515Z,19.1
2023-05-12T18:56:28.092Z,18.8
2023-05-12T18:58:29.948Z,19.1
2023-05-12T19:00:31.756Z,19
2023-05-12T19:02:33.642Z,18.7
2023-05-12T19:04:35.397Z,18.8
2023-05-12T19:08:42.222Z,18.9
2023-05-12T19:12:45.830Z,18.6
2023-05-12T19:14:47.645Z,18.8
2023-05-12T19:18:51.398Z,18.6
2023-05-12T19:22:58.143Z,18.5
2023-05-12T19:24:59.968Z,18.4
2023-05-12T19:26:02.438Z,18.4
2023-05-12T19:28:04.291Z,18.3
2023-05-12T19:30:06.146Z,18.4
2023-05-12T19:32:08.088Z,18.3
2023-05-12T19:34:12.959Z,18
2023-05-12T19:36:14.783Z,18
2023-05-12T19:38:16.608Z,18.2
2023-05-12T19:40:18.478Z,18.2
2023-05-12T19:42:20.276Z,18.1
2023-05-12T19:46:23.976Z,18
2023-05-12T19:48:28.943Z,17.6
2023-05-12T19:50:30.799Z,18
2023-05-12T19:52:32.628Z,17.9
2023-05-12T19:56:36.313Z,18
2023-05-12T20:12:54.246Z,17.6
2023-05-12T20:14:56.095Z,17.4
2023-05-12T20:17:01.152Z,17.4
2023-05-12T20:19:03.309Z,17.1
2023-05-12T20:21:04.780Z,17.3
2023-05-12T20:23:33.213Z,17.1
2023-05-12T20:25:35.080Z,16.9
2023-05-12T20:27:36.951Z,16.6
2023-05-12T20:29:41.915Z,16.8
2023-05-12T20:35:47.446Z,16.9
2023-05-12T20:37:49.312Z,17.1
2023-05-12T20:39:51.170Z,16.7
2023-05-12T20:41:52.987Z,16.8
2023-05-12T20:50:03.564Z,17.1
2023-05-12T21:17:36.490Z,16.7
2023-05-12T21:19:38.335Z,16.4
2023-05-12T21:21:40.185Z,16.6
2023-05-12T21:23:42.038Z,16.7
2023-05-12T21:25:47.034Z,16.4
2023-05-12T21:27:48.915Z,16.5
2023-05-12T21:29:50.745Z,16.4
2023-05-12T21:33:54.493Z,16.4
2023-05-12T21:37:58.192Z,16.2
2023-05-12T21:40:03.201Z,16.3
2023-05-12T21:46:10.394Z,16.2
2023-05-12T21:48:12.174Z,16.2
2023-05-12T21:50:14.046Z,16
2023-05-12T21:52:16.025Z,16.3
2023-05-12T21:54:20.929Z,16.1
2023-05-12T21:58:24.725Z,16.2
2023-05-12T22:02:28.475Z,15.9
2023-05-12T22:04:30.308Z,16.1
2023-05-12T22:12:40.939Z,15.9
2023-05-12T22:13:43.456Z,15.7
2023-05-12T22:17:47.213Z,15.9
2023-05-12T22:19:49.086Z,15.6
2023-05-12T22:21:54.087Z,15.6
2023-05-12T22:23:55.944Z,15.8
2023-05-12T22:27:59.747Z,15.7
2023-05-12T22:30:01.594Z,15.8
2023-05-12T22:32:03.463Z,15.7
2023-05-12T22:34:05.362Z,15.9
2023-05-12T22:36:10.381Z,15.6
2023-05-12T22:38:12.212Z,15.4
2023-05-12T22:40:14.116Z,15.4
2023-05-12T22:42:15.964Z,15.5
2023-05-12T22:44:17.817Z,15.6
2023-05-12T22:46:19.776Z,15.4
2023-05-12T22:48:21.588Z,15.5
2023-05-12T22:50:26.627Z,15.6
2023-05-12T22:52:28.468Z,15.4
2023-05-12T22:54:30.334Z,15.3
2023-05-12T22:56:32.220Z,15.4
2023-05-12T22:58:34.073Z,15.2
2023-05-12T23:00:35.961Z,15.4
2023-05-12T23:06:44.737Z,15.1
2023-05-12T23:17:59.847Z,15.2
2023-05-12T23:24:05.409Z,15.3
2023-05-12T23:28:09.177Z,15.1
2023-05-12T23:30:11.017Z,15.1
2023-05-12T23:34:17.944Z,15.1
2023-05-12T23:36:19.803Z,14.9
2023-05-12T23:38:21.732Z,15.1
2023-05-12T23:40:23.818Z,15
2023-05-12T23:42:25.450Z,14.9
2023-05-12T23:44:27.360Z,15
2023-05-12T23:46:32.404Z,15
2023-05-12T23:48:34.223Z,14.8
2023-05-12T23:50:36.119Z,15
2023-05-12T23:52:37.978Z,14.9
2023-05-12T23:54:39.868Z,14.7
2023-05-12T23:56:41.792Z,15
2023-05-12T23:58:43.656Z,14.8
